Time;durP1;ratioP1;P1;durP2;ratioP2;P2;SDS_P1;SDS_P2;PMS_P1;PMS_P2;Temp;Humidity;BMP_temperature;BMP_pressure;BME280_temperature;BME280_humidity;BME280_pressure;Samples;Min_cycle;Max_cycle;Signal;HPM_P1;HPM_P2
2022/06/28 00:01:43;;;;;;;;;;;;;;;15.34;74.99;101713.22;5044168;28;19921;-77
2022/06/28 00:04:08;;;;;;;;;;;;;;;15.32;74.67;101712.41;5040433;28;19928;-77
2022/06/28 00:06:34;;;;;;;;;;;;;;;15.35;75.16;101711.47;5042008;28;19927;-77
2022/06/28 00:08:59;;;;;;;;;;;;;;;15.31;75.62;101701.97;5039575;28;19950;-77
2022/06/28 00:11:24;;;;;;;;;;;;;;;15.21;75.45;101701.38;5042252;28;19921;-77
2022/06/28 00:13:50;;;;;;;;;;;;;;;15.24;75.30;101698.66;5044557;28;20249;-77
2022/06/28 00:16:16;;;;;;;;;;;;;;;15.24;74.85;101700.44;5038546;28;19921;-77
2022/06/28 00:18:42;;;;;;;;;;;;;;;15.28;75.34;101697.69;5040284;28;21155;-76
2022/06/28 00:21:08;;;;;;;;;;;;;;;15.24;74.88;101701.28;5045390;28;20062;-77
2022/06/28 00:23:36;;;;;;;;;;;;;;;15.20;74.47;101696.16;5045776;28;19960;-77
2022/06/28 00:26:02;;;;;;;;;;;;;;;15.25;74.58;101692.53;5045622;28;19944;-77
2022/06/28 00:28:28;;;;;;;;;;;;;;;15.21;74.79;101692.66;5024666;28;20395;-77
2022/06/28 00:30:53;;;;;;;;;;;;;;;15.10;75.26;101685.06;5043285;28;19925;-77
2022/06/28 00:33:18;;;;;;;;;;;;;;;15.16;75.36;101686.66;5046296;28;19920;-77
2022/06/28 00:35:44;;;;;;;;;;;;;;;15.07;75.29;101692.13;5045642;28;19956;-77
2022/06/28 00:38:09;;;;;;;;;;;;;;;15.10;75.57;101678.94;5045145;28;19928;-77
2022/06/28 00:40:48;;;;;;;;;;;;;;;15.14;75.44;101689.31;5047021;28;19925;-77
2022/06/28 00:43:14;;;;;;;;;;;;;;;15.20;75.03;101681.31;5046244;28;19925;-77
2022/06/28 00:45:41;;;;;;;;;;;;;;;15.13;74.98;101689.34;5045791;28;19932;-76
2022/06/28 00:48:07;;;;;;;;;;;;;;;15.09;74.75;101683.34;5043188;28;19985;-77
2022/06/28 00:50:34;;;;;;;;;;;;;;;14.99;74.59;101692.31;5032574;28;20369;-77
2022/06/28 00:53:00;;;;;;;;;;;;;;;15.12;75.52;101696.34;5047910;28;19967;-77
2022/06/28 00:55:25;;;;;;;;;;;;;;;15.16;75.21;101694.50;5047573;28;19921;-77
2022/06/28 00:57:50;;;;;;;;;;;;;;;15.20;75.26;101689.16;5044510;28;19916;-77
2022/06/28 01:00:16;;;;;;;;;;;;;;;15.18;75.25;101690.97;5045358;28;20788;-77
2022/06/28 01:02:41;;;;;;;;;;;;;;;15.18;75.32;101695.34;5044927;28;19946;-77
2022/06/28 01:05:07;;;;;;;;;;;;;;;15.10;75.82;101695.53;5046135;28;19963;-77
2022/06/28 01:07:35;;;;;;;;;;;;;;;15.02;75.40;101697.47;5044378;28;19928;-77
2022/06/28 01:10:00;;;;;;;;;;;;;;;15.14;75.02;101705.03;5042122;28;20346;-78
2022/06/28 01:12:25;;;;;;;;;;;;;;;14.99;74.78;101705.41;5043300;28;19921;-77
2022/06/28 01:14:51;;;;;;;;;;;;;;;14.97;74.99;101698.50;5026391;28;19925;-77
2022/06/28 01:17:16;;;;;;;;;;;;;;;15.03;75.02;101698.34;5044643;28;20427;-77
2022/06/28 01:19:42;;;;;;;;;;;;;;;15.05;74.54;101705.25;5041276;28;19948;-77
2022/06/28 01:22:10;;;;;;;;;;;;;;;15.10;74.85;101710.34;5039234;28;20316;-77
2022/06/28 01:24:35;;;;;;;;;;;;;;;15.07;75.19;101708.69;5042906;28;20650;-77
2022/06/28 01:27:00;;;;;;;;;;;;;;;14.96;74.65;101715.06;5042796;28;19967;-77
2022/06/28 01:29:26;;;;;;;;;;;;;;;15.01;75.33;101714.06;5045864;28;19933;-76
2022/06/28 01:31:51;;;;;;;;;;;;;;;15.06;74.99;101719.19;5040506;28;20392;-77
2022/06/28 01:34:17;;;;;;;;;;;;;;;15.12;74.91;101721.66;5042206;28;19928;-77
2022/06/28 01:36:43;;;;;;;;;;;;;;;15.01;75.27;101721.91;5039992;28;19921;-77
2022/06/28 01:39:08;;;;;;;;;;;;;;;14.98;74.99;101732.44;5040125;28;19920;-77
2022/06/28 01:41:34;;;;;;;;;;;;;;;15.04;74.62;101727.06;5044491;28;19928;-77
2022/06/28 01:44:00;;;;;;;;;;;;;;;15.15;75.20;101727.69;5039110;28;19921;-77
2022/06/28 01:46:26;;;;;;;;;;;;;;;15.14;74.90;101725.97;5047462;28;19925;-76
2022/06/28 01:48:51;;;;;;;;;;;;;;;15.07;75.14;101729.63;5048970;28;19970;-79
2022/06/28 01:51:16;;;;;;;;;;;;;;;15.17;74.38;101730.25;5040894;28;19937;-78
2022/06/28 01:53:42;;;;;;;;;;;;;;;15.04;74.87;101727.06;5043690;28;20430;-78
2022/06/28 01:56:07;;;;;;;;;;;;;;;14.92;75.19;101719.50;5044504;28;19947;-78
2022/06/28 01:58:32;;;;;;;;;;;;;;;14.95;75.10;101734.31;5045418;28;20641;-78
2022/06/28 02:00:58;;;;;;;;;;;;;;;14.91;75.70;101738.75;5027920;28;19924;-77
2022/06/28 02:03:23;;;;;;;;;;;;;;;14.96;75.12;101738.63;5039137;28;19927;-76
2022/06/28 02:05:48;;;;;;;;;;;;;;;14.97;74.18;101737.72;5043432;28;19921;-76
2022/06/28 02:08:14;;;;;;;;;;;;;;;15.00;75.35;101746.38;5041393;28;19931;-76
2022/06/28 02:10:39;;;;;;;;;;;;;;;14.91;73.99;101757.06;5044838;28;20383;-76
2022/06/28 02:13:04;;;;;;;;;;;;;;;14.90;74.07;101747.47;5042571;28;20059;-76
2022/06/28 02:15:30;;;;;;;;;;;;;;;14.91;74.88;101759.66;5040067;28;19952;-76
2022/06/28 02:17:59;;;;;;;;;;;;;;;14.95;75.31;101756.06;5043603;28;19935;-76
2022/06/28 02:20:24;;;;;;;;;;;;;;;14.96;74.94;101749.94;5044992;28;20518;-76
2022/06/28 02:22:50;;;;;;;;;;;;;;;14.87;74.38;101745.78;5039835;28;19932;-76
2022/06/28 02:25:17;;;;;;;;;;;;;;;14.92;74.16;101745.69;5044500;28;19925;-76
2022/06/28 02:27:43;;;;;;;;;;;;;;;14.82;74.77;101749.41;5044706;28;19975;-76
2022/06/28 02:30:09;;;;;;;;;;;;;;;14.91;74.83;101743.09;5041609;28;19939;-76
2022/06/28 02:32:34;;;;;;;;;;;;;;;14.82;74.29;101747.66;5039955;28;19929;-76
2022/06/28 02:40:27;;;;;;;;;;;;;;;14.74;74.19;101751.31;5035567;28;19928;-76
2022/06/28 02:42:53;;;;;;;;;;;;;;;14.80;74.39;101757.28;5030064;28;20407;-76
2022/06/28 02:45:20;;;;;;;;;;;;;;;14.75;73.88;101753.06;5039541;28;19931;-76
2022/06/28 02:47:45;;;;;;;;;;;;;;;14.67;73.77;101752.34;5043896;28;19928;-76
2022/06/28 02:50:11;;;;;;;;;;;;;;;14.76;74.27;101755.66;5038286;28;19925;-76
2022/06/28 02:52:36;;;;;;;;;;;;;;;14.71;73.80;101761.84;5045347;28;20453;-76
2022/06/28 02:55:02;;;;;;;;;;;;;;;14.69;73.43;101767.09;5041913;28;20391;-76
2022/06/28 02:57:28;;;;;;;;;;;;;;;14.66;73.92;101767.16;5041831;28;19917;-76
2022/06/28 02:59:53;;;;;;;;;;;;;;;14.53;74.51;101773.53;5026678;28;19932;-76
2022/06/28 03:02:18;;;;;;;;;;;;;;;14.55;74.67;101776.13;5022100;28;20071;-76
2022/06/28 03:04:44;;;;;;;;;;;;;;;14.55;74.01;101781.38;5044664;28;19928;-76
2022/06/28 03:07:09;;;;;;;;;;;;;;;14.44;74.01;101779.00;5036593;28;20384;-76
2022/06/28 03:09:34;;;;;;;;;;;;;;;14.61;74.05;101789.09;5045842;28;21126;-76
2022/06/28 03:12:00;;;;;;;;;;;;;;;14.64;73.62;101779.44;5039247;28;19948;-76
2022/06/28 03:14:25;;;;;;;;;;;;;;;14.60;73.28;101785.59;5026378;28;19931;-76
2022/06/28 03:16:50;;;;;;;;;;;;;;;14.50;73.18;101784.06;5044732;28;19952;-76
2022/06/28 03:19:15;;;;;;;;;;;;;;;14.43;73.11;101789.47;5044173;28;19972;-76
2022/06/28 03:21:41;;;;;;;;;;;;;;;14.51;73.30;101792.78;5042660;28;20120;-76
2022/06/28 03:24:06;;;;;;;;;;;;;;;14.44;73.00;101789.44;5044179;28;19932;-76
2022/06/28 03:26:32;;;;;;;;;;;;;;;14.52;73.28;101790.16;5045188;28;19936;-76
2022/06/28 03:28:57;;;;;;;;;;;;;;;14.46;73.41;101794.63;5033642;28;19925;-77
2022/06/28 03:31:22;;;;;;;;;;;;;;;14.46;73.09;101794.63;5037865;28;20388;-77
2022/06/28 03:33:48;;;;;;;;;;;;;;;14.51;72.50;101801.47;5022103;28;20511;-77
2022/06/28 03:36:13;;;;;;;;;;;;;;;14.44;72.99;101799.03;5037498;28;19964;-77
2022/06/28 03:38:39;;;;;;;;;;;;;;;14.47;73.44;101799.84;5025782;28;20040;-77
2022/06/28 03:41:04;;;;;;;;;;;;;;;14.51;73.07;101800.63;5041332;28;20671;-78
2022/06/28 03:43:29;;;;;;;;;;;;;;;14.45;73.44;101806.84;5041404;28;20008;-78
2022/06/28 03:45:55;;;;;;;;;;;;;;;14.50;72.86;101804.16;5051569;28;19913;-78
2022/06/28 03:48:20;;;;;;;;;;;;;;;14.43;72.28;101802.53;5046098;28;19978;-78
2022/06/28 03:50:45;;;;;;;;;;;;;;;14.29;73.42;101808.88;5045999;28;20399;-78
2022/06/28 03:53:10;;;;;;;;;;;;;;;14.27;74.00;101821.13;5047462;28;19925;-78
2022/06/28 03:55:36;;;;;;;;;;;;;;;14.36;73.33;101812.25;5047709;28;19924;-77
2022/06/28 03:58:01;;;;;;;;;;;;;;;14.43;73.30;101818.22;5048726;28;19926;-78
2022/06/28 04:00:26;;;;;;;;;;;;;;;14.31;73.63;101816.72;5035666;28;20317;-78
2022/06/28 04:02:52;;;;;;;;;;;;;;;14.39;73.50;101820.03;5052402;28;19928;-78
2022/06/28 04:05:17;;;;;;;;;;;;;;;14.44;73.47;101817.34;5051296;28;20317;-77
2022/06/28 04:07:43;;;;;;;;;;;;;;;14.42;73.39;101821.72;5050726;28;19920;-77
2022/06/28 04:10:08;;;;;;;;;;;;;;;14.47;72.99;101825.13;5051741;28;19917;-77
2022/06/28 04:12:33;;;;;;;;;;;;;;;14.47;73.74;101819.91;5032720;28;20018;-77
2022/06/28 04:14:59;;;;;;;;;;;;;;;14.43;73.13;101818.22;5056422;28;19952;-76
2022/06/28 04:17:24;;;;;;;;;;;;;;;14.46;73.64;101829.50;5042922;28;19924;-76
2022/06/28 04:19:49;;;;;;;;;;;;;;;14.44;74.05;101820.81;5048273;28;19921;-76
2022/06/28 04:22:15;;;;;;;;;;;;;;;14.42;74.11;101817.34;5051079;28;20395;-76
2022/06/28 04:24:40;;;;;;;;;;;;;;;14.45;73.55;101814.69;5054581;28;19917;-76
2022/06/28 04:27:05;;;;;;;;;;;;;;;14.41;74.97;101825.25;5036151;28;19968;-76
2022/06/28 04:29:31;;;;;;;;;;;;;;;14.42;75.24;101827.81;5048504;28;20043;-76
2022/06/28 04:31:56;;;;;;;;;;;;;;;14.47;74.00;101819.91;5048172;28;19920;-78
2022/06/28 04:34:22;;;;;;;;;;;;;;;14.47;74.80;101827.75;5048453;28;20300;-78
2022/06/28 04:36:47;;;;;;;;;;;;;;;14.52;75.32;101831.13;5013619;28;20069;-78
2022/06/28 04:39:13;;;;;;;;;;;;;;;14.53;73.52;101825.00;5047989;28;19929;-78
2022/06/28 04:41:38;;;;;;;;;;;;;;;14.48;75.40;101835.53;5047696;28;20015;-78
2022/06/28 04:44:03;;;;;;;;;;;;;;;14.62;75.03;101823.03;5046753;28;19962;-78
2022/06/28 04:46:29;;;;;;;;;;;;;;;14.48;75.60;101826.81;5046826;28;19920;-78
2022/06/28 04:48:54;;;;;;;;;;;;;;;14.51;75.91;101825.03;5046939;28;19928;-78
2022/06/28 04:51:19;;;;;;;;;;;;;;;14.58;75.37;101818.78;5047276;28;20469;-78
2022/06/28 04:53:47;;;;;;;;;;;;;;;14.68;75.36;101822.91;5049182;28;20002;-78
2022/06/28 04:56:13;;;;;;;;;;;;;;;14.82;75.15;101826.16;5046432;28;19928;-78
2022/06/28 04:58:38;;;;;;;;;;;;;;;14.80;75.89;101827.03;5046199;28;19925;-76
2022/06/28 05:01:04;;;;;;;;;;;;;;;14.91;75.21;101818.97;5042196;28;19925;-78
2022/06/28 05:03:29;;;;;;;;;;;;;;;14.77;75.84;101827.97;5048970;28;19939;-78
2022/06/28 05:05:55;;;;;;;;;;;;;;;14.83;75.96;101821.75;5039600;28;20638;-78
2022/06/28 05:08:21;;;;;;;;;;;;;;;14.78;75.89;101821.84;5036286;28;19960;-77
2022/06/28 05:10:46;;;;;;;;;;;;;;;14.86;75.65;101822.53;5047783;28;19932;-76
2022/06/28 05:13:11;;;;;;;;;;;;;;;14.90;76.29;101820.72;5043211;28;19921;-76
2022/06/28 05:15:37;;;;;;;;;;;;;;;14.80;75.65;101827.03;5039755;28;19919;-76
2022/06/28 05:18:02;;;;;;;;;;;;;;;14.86;75.87;101829.53;5037642;28;19921;-76
2022/06/28 05:20:27;;;;;;;;;;;;;;;14.91;76.40;101827.69;5025797;28;19925;-76
2022/06/28 05:22:53;;;;;;;;;;;;;;;14.86;76.19;101827.78;5044757;28;20390;-76
2022/06/28 05:25:18;;;;;;;;;;;;;;;14.86;75.74;101825.16;5046685;28;20086;-76
2022/06/28 05:27:43;;;;;;;;;;;;;;;14.92;75.91;101823.31;5049241;28;19916;-76
2022/06/28 05:30:09;;;;;;;;;;;;;;;14.89;76.41;101831.25;5044836;28;20007;-76
2022/06/28 05:32:34;;;;;;;;;;;;;;;14.96;76.00;101831.06;5042184;28;19928;-76
2022/06/28 05:34:59;;;;;;;;;;;;;;;15.03;76.01;101821.31;5034871;28;19925;-76
2022/06/28 05:37:25;;;;;;;;;;;;;;;14.81;77.34;101824.41;5044920;28;19925;-76
2022/06/28 05:39:50;;;;;;;;;;;;;;;14.92;76.65;101811.09;5049334;28;20396;-76
2022/06/28 05:42:16;;;;;;;;;;;;;;;15.00;76.79;101811.78;5038355;28;19937;-76
2022/06/28 05:44:42;;;;;;;;;;;;;;;15.08;76.70;101815.09;5043113;28;19925;-76
2022/06/28 05:47:08;;;;;;;;;;;;;;;15.11;77.16;101817.63;5043436;28;19927;-76
2022/06/28 05:49:33;;;;;;;;;;;;;;;14.98;77.77;101826.66;5029526;28;19931;-76
2022/06/28 05:51:58;;;;;;;;;;;;;;;15.08;77.14;101828.16;5044272;28;19963;-77
2022/06/28 05:54:24;;;;;;;;;;;;;;;15.06;76.87;101823.88;5044790;28;20316;-76
2022/06/28 05:56:49;;;;;;;;;;;;;;;15.01;76.77;101823.09;5047293;28;19920;-76
2022/06/28 05:59:14;;;;;;;;;;;;;;;14.97;77.54;101826.69;5042497;28;19924;-78
2022/06/28 06:01:40;;;;;;;;;;;;;;;15.05;77.44;101815.16;5044193;28;19936;-77
2022/06/28 06:04:05;;;;;;;;;;;;;;;15.05;76.99;101816.91;5044505;28;20417;-77
2022/06/28 06:06:30;;;;;;;;;;;;;;;15.06;77.46;101811.66;5047795;28;20385;-77
2022/06/28 06:08:56;;;;;;;;;;;;;;;15.09;77.83;101822.06;5010683;28;20020;-77
2022/06/28 06:11:21;;;;;;;;;;;;;;;15.17;76.10;101824.47;5030235;28;19929;-77
2022/06/28 06:13:46;;;;;;;;;;;;;;;15.20;76.71;101830.50;5043226;28;19927;-77
2022/06/28 06:16:12;;;;;;;;;;;;;;;15.20;77.25;101833.13;5042198;28;21150;-77
2022/06/28 06:18:37;;;;;;;;;;;;;;;15.25;76.44;101831.25;5047278;28;19996;-77
2022/06/28 06:21:02;;;;;;;;;;;;;;;15.24;76.70;101824.31;5031304;28;20007;-76
2022/06/28 06:23:28;;;;;;;;;;;;;;;15.22;76.68;101826.09;5044693;28;19921;-77
2022/06/28 06:25:53;;;;;;;;;;;;;;;15.31;75.67;101823.25;5044359;28;19924;-77
2022/06/28 06:28:19;;;;;;;;;;;;;;;15.30;75.56;101820.69;5040046;28;19982;-77
2022/06/28 06:30:44;;;;;;;;;;;;;;;15.35;76.40;101830.16;5044311;28;19929;-77
2022/06/28 06:33:09;;;;;;;;;;;;;;;15.37;75.66;101825.72;5041192;28;19932;-77
2022/06/28 06:35:35;;;;;;;;;;;;;;;15.32;77.04;101829.34;5041653;28;19929;-77
2022/06/28 06:38:00;;;;;;;;;;;;;;;15.41;76.07;101826.53;5028776;28;20342;-77
2022/06/28 06:40:29;;;;;;;;;;;;;;;15.43;75.61;101822.97;5044293;28;19921;-78
2022/06/28 06:42:55;;;;;;;;;;;;;;;15.43;76.59;101828.19;5044827;28;19925;-78
2022/06/28 06:45:20;;;;;;;;;;;;;;;15.46;75.48;101826.41;5045311;28;19924;-77
2022/06/28 06:47:45;;;;;;;;;;;;;;;15.53;75.66;101830.59;5044490;28;20204;-77
2022/06/28 06:50:11;;;;;;;;;;;;;;;15.43;75.10;101825.59;5042657;28;20312;-77
2022/06/28 06:52:37;;;;;;;;;;;;;;;15.58;75.33;101821.72;5042842;28;20062;-77
2022/06/28 06:55:03;;;;;;;;;;;;;;;15.55;76.25;101824.41;5040126;28;19924;-78
2022/06/28 06:57:28;;;;;;;;;;;;;;;15.62;75.96;101833.84;5041194;28;19920;-78
2022/06/28 06:59:54;;;;;;;;;;;;;;;15.59;75.68;101838.31;5037365;28;19920;-78
2022/06/28 07:02:19;;;;;;;;;;;;;;;15.74;74.94;101833.59;5045137;28;19929;-76
2022/06/28 07:04:44;;;;;;;;;;;;;;;15.81;74.86;101829.03;5044131;28;19920;-76
2022/06/28 07:07:10;;;;;;;;;;;;;;;15.86;74.71;101832.41;5046503;28;19928;-76
2022/06/28 07:09:35;;;;;;;;;;;;;;;15.70;75.46;101834.50;5045223;28;19932;-75
2022/06/28 07:12:00;;;;;;;;;;;;;;;15.86;75.79;101828.03;5049504;28;19927;-76
2022/06/28 07:14:26;;;;;;;;;;;;;;;15.85;76.38;101828.91;5041993;28;19936;-76
2022/06/28 07:16:51;;;;;;;;;;;;;;;15.85;76.16;101828.91;5037018;28;20649;-78
2022/06/28 07:19:17;;;;;;;;;;;;;;;15.85;76.11;101831.53;5025773;28;19925;-78
2022/06/28 07:21:42;;;;;;;;;;;;;;;15.85;76.17;101825.44;5043911;28;19928;-78
2022/06/28 07:24:09;;;;;;;;;;;;;;;15.86;75.40;101828.03;5044770;28;20014;-78
2022/06/28 07:26:35;;;;;;;;;;;;;;;15.82;74.67;101826.38;5039827;28;19925;-78
2022/06/28 07:29:01;;;;;;;;;;;;;;;15.83;74.82;101822.88;5037495;28;19936;-78
2022/06/28 07:31:28;;;;;;;;;;;;;;;15.93;73.90;101826.09;5042474;28;19929;-78
2022/06/28 07:33:53;;;;;;;;;;;;;;;15.87;74.75;101827.09;5024693;28;20587;-78
2022/06/28 07:36:19;;;;;;;;;;;;;;;15.92;73.82;101830.50;5035680;28;19996;-78
2022/06/28 07:38:44;;;;;;;;;;;;;;;15.94;72.77;101822.56;5044600;28;20331;-78
2022/06/28 07:41:09;;;;;;;;;;;;;;;15.94;71.87;101823.44;5046431;28;20461;-78
2022/06/28 07:43:35;;;;;;;;;;;;;;;16.02;72.46;101825.00;5044239;28;19924;-78
2022/06/28 07:46:01;;;;;;;;;;;;;;;15.91;70.93;101813.03;5049601;28;19917;-78
2022/06/28 07:48:26;;;;;;;;;;;;;;;15.87;68.74;101810.53;5049091;28;19917;-78
2022/06/28 07:53:36;;;;;;;;;;;;;;;15.86;68.31;101804.44;5047041;28;19928;-78
2022/06/28 07:56:02;;;;;;;;;;;;;;;15.86;69.78;101809.69;5044033;28;20397;-78
2022/06/28 07:58:27;;;;;;;;;;;;;;;16.06;69.85;101808.28;5045412;28;19924;-78
2022/06/28 08:00:53;;;;;;;;;;;;;;;16.09;71.09;101809.06;5042924;28;19927;-78
2022/06/28 08:03:18;;;;;;;;;;;;;;;16.07;70.82;101810.88;5048532;28;19921;-78
2022/06/28 08:05:44;;;;;;;;;;;;;;;16.01;69.04;101804.94;5042716;28;20007;-78
2022/06/28 08:08:09;;;;;;;;;;;;;;;15.98;67.55;101803.25;5042708;28;20383;-78
2022/06/28 08:10:35;;;;;;;;;;;;;;;16.01;67.63;101805.81;5051377;28;19928;-78
2022/06/28 08:13:00;;;;;;;;;;;;;;;15.94;67.29;101802.47;5050552;28;19924;-78
2022/06/28 08:15:25;;;;;;;;;;;;;;;16.02;68.35;101806.66;5046204;28;20098;-78
2022/06/28 08:17:51;;;;;;;;;;;;;;;16.04;67.38;101800.47;5046621;28;19929;-78
2022/06/28 08:20:17;;;;;;;;;;;;;;;15.98;68.33;101803.25;5032441;28;20471;-79
2022/06/28 08:22:42;;;;;;;;;;;;;;;16.05;68.18;101796.94;5022235;28;20012;-78
2022/06/28 08:25:08;;;;;;;;;;;;;;;16.11;68.73;101809.88;5047840;28;19971;-78
2022/06/28 08:27:33;;;;;;;;;;;;;;;16.18;69.10;101800.09;5048219;28;20010;-78
2022/06/28 08:29:59;;;;;;;;;;;;;;;16.14;70.77;101804.53;5044716;28;20016;-78
2022/06/28 08:32:24;;;;;;;;;;;;;;;16.10;67.80;101795.06;5041125;28;19921;-78
2022/06/28 08:34:50;;;;;;;;;;;;;;;16.10;68.63;101794.19;5042128;28;20331;-78
2022/06/28 08:37:15;;;;;;;;;;;;;;;16.07;67.29;101797.78;5041384;28;20700;-78
2022/06/28 08:39:41;;;;;;;;;;;;;;;16.13;67.50;101783.63;5049355;28;20351;-78
2022/06/28 08:42:07;;;;;;;;;;;;;;;16.13;67.42;101781.88;5041243;28;20438;-78
2022/06/28 08:44:34;;;;;;;;;;;;;;;16.16;66.57;101773.94;5047164;28;20669;-78
2022/06/28 08:47:00;;;;;;;;;;;;;;;16.20;66.13;101777.28;5047509;28;20406;-78
2022/06/28 08:49:33;;;;;;;;;;;;;;;16.23;67.70;101779.84;5044201;28;19925;-78
2022/06/28 08:51:58;;;;;;;;;;;;;;;16.24;66.25;101779.81;5046929;28;20002;-78
2022/06/28 08:54:24;;;;;;;;;;;;;;;16.33;70.49;101776.06;5045779;28;20050;-78
2022/06/28 08:56:50;;;;;;;;;;;;;;;16.38;69.56;101771.53;5044145;28;19925;-78
2022/06/28 08:59:15;;;;;;;;;;;;;;;16.37;68.28;101768.03;5051843;28;20051;-78
2022/06/28 09:01:41;;;;;;;;;;;;;;;16.36;68.09;101762.84;5049933;28;19925;-78
2022/06/28 09:04:07;;;;;;;;;;;;;;;16.37;68.88;101765.41;5047398;28;19998;-78
2022/06/28 09:06:34;;;;;;;;;;;;;;;16.39;68.09;101752.28;5049086;28;19917;-77
2022/06/28 09:08:59;;;;;;;;;;;;;;;16.42;67.16;101747.81;5044053;28;19967;-77
2022/06/28 09:11:24;;;;;;;;;;;;;;;16.39;67.62;101747.91;5045678;28;20342;-77
2022/06/28 09:13:50;;;;;;;;;;;;;;;16.45;70.53;101747.72;5042690;28;20451;-77
2022/06/28 09:16:15;;;;;;;;;;;;;;;16.42;67.74;101737.31;5040837;28;20522;-77
2022/06/28 09:18:41;;;;;;;;;;;;;;;16.41;67.29;101732.97;5029378;28;20041;-77
2022/06/28 09:21:11;;;;;;;;;;;;;;;16.49;70.78;101732.75;5046894;28;19929;-77
2022/06/28 09:23:38;;;;;;;;;;;;;;;16.48;68.93;101729.28;5040702;28;19936;-77
2022/06/28 09:26:07;;;;;;;;;;;;;;;16.49;66.67;101730.13;5042545;28;19987;-77
2022/06/28 09:28:34;;;;;;;;;;;;;;;16.50;65.60;101732.69;5045338;28;20004;-77
2022/06/28 09:31:18;;;;;;;;;;;;;;;16.50;65.52;101734.44;5042536;28;20504;-77
2022/06/28 09:33:45;;;;;;;;;;;;;;;16.50;67.42;101737.06;5043847;28;19983;-76
2022/06/28 09:36:11;;;;;;;;;;;;;;;16.47;66.90;101727.53;5040618;28;19925;-76
2022/06/28 09:38:37;;;;;;;;;;;;;;;16.52;67.45;101722.19;5044943;28;19935;-76
2022/06/28 09:41:03;;;;;;;;;;;;;;;16.55;69.57;101723.84;5034441;28;19932;-76
2022/06/28 09:43:34;;;;;;;;;;;;;;;16.58;70.08;101729.81;5042474;28;20521;-76
2022/06/28 09:46:04;;;;;;;;;;;;;;;16.60;67.44;101727.16;5045625;28;19956;-76
2022/06/28 09:48:37;;;;;;;;;;;;;;;16.60;68.52;101732.41;5041566;28;19971;-76
2022/06/28 09:51:02;;;;;;;;;;;;;;;16.56;67.32;101717.66;5043355;28;20411;-76
2022/06/28 09:53:29;;;;;;;;;;;;;;;16.60;66.76;101714.06;5043474;28;19951;-76
2022/06/28 09:55:57;;;;;;;;;;;;;;;16.62;68.65;101717.47;5008959;28;20039;-76
2022/06/28 09:58:23;;;;;;;;;;;;;;;16.63;65.32;101704.34;5038557;28;19947;-76
2022/06/28 10:00:49;;;;;;;;;;;;;;;16.66;69.31;101712.09;5039972;28;19917;-76
2022/06/28 10:03:14;;;;;;;;;;;;;;;16.63;63.88;101696.47;5045061;28;19933;-75
2022/06/28 10:05:40;;;;;;;;;;;;;;;16.60;67.32;101700.94;5044283;28;20353;-78
2022/06/28 10:08:06;;;;;;;;;;;;;;;16.63;62.74;101692.97;5043747;28;20292;-78
2022/06/28 10:10:32;;;;;;;;;;;;;;;16.63;62.66;101682.47;5042821;28;19925;-79
2022/06/28 10:15:54;;;;;;;;;;;;;;;16.63;64.02;101680.72;5028088;28;19923;-78
2022/06/28 10:18:21;;;;;;;;;;;;;;;16.67;62.60;101673.63;5045842;28;19956;-79
2022/06/28 10:20:47;;;;;;;;;;;;;;;16.66;63.32;101682.38;5045327;28;19974;-79
2022/06/28 10:23:23;;;;;;;;;;;;;;;16.70;61.22;101674.38;5044150;28;19951;-78
2022/06/28 10:26:14;;;;;;;;;;;;;;;16.72;69.07;101680.47;5042465;28;20347;-79
2022/06/28 10:28:44;;;;;;;;;;;;;;;16.70;65.62;101684.88;5043813;28;20540;-78
2022/06/28 10:31:22;;;;;;;;;;;;;;;16.73;67.23;101673.47;5047149;28;19924;-78
2022/06/28 10:33:48;;;;;;;;;;;;;;;16.75;69.96;101680.38;5046563;28;19986;-78
2022/06/28 10:36:14;;;;;;;;;;;;;;;16.76;62.38;101653.19;5043076;28;20414;-76
2022/06/28 10:38:58;;;;;;;;;;;;;;;16.77;69.33;101664.56;5043895;28;20007;-78
2022/06/28 10:41:35;;;;;;;;;;;;;;;16.78;69.96;101666.28;5047818;28;19921;-76
2022/06/28 10:44:20;;;;;;;;;;;;;;;16.74;68.13;101660.28;5039684;28;20343;-77
2022/06/28 10:46:49;;;;;;;;;;;;;;;16.75;62.64;101655.88;5046774;28;20392;-77
2022/06/28 10:49:15;;;;;;;;;;;;;;;16.79;61.11;101647.84;5043172;28;19928;-77
2022/06/28 10:52:00;;;;;;;;;;;;;;;16.83;59.28;101644.22;5047101;28;19925;-77
2022/06/28 10:54:26;;;;;;;;;;;;;;;16.86;64.85;101648.50;5042067;28;19925;-77
2022/06/28 10:56:52;;;;;;;;;;;;;;;16.80;67.06;101652.19;5029453;28;19928;-76
2022/06/28 10:59:18;;;;;;;;;;;;;;;16.89;60.02;101641.41;5036197;28;19931;-76
2022/06/28 11:01:46;;;;;;;;;;;;;;;16.83;63.40;101638.97;5027248;28;20015;-76
2022/06/28 11:04:18;;;;;;;;;;;;;;;16.92;58.96;101629.94;5045646;28;19917;-76
2022/06/28 11:06:44;;;;;;;;;;;;;;;16.97;57.01;101623.63;5047864;28;20364;-76
2022/06/28 11:09:19;;;;;;;;;;;;;;;16.95;58.28;101628.06;5043525;28;20303;-76
2022/06/28 11:12:03;;;;;;;;;;;;;;;16.90;60.08;101630.00;5048417;28;19925;-76
2022/06/28 11:14:29;;;;;;;;;;;;;;;16.99;59.52;101626.22;5048401;28;20419;-76
2022/06/28 11:16:56;;;;;;;;;;;;;;;17.03;60.29;101635.69;5057907;28;20012;-76
2022/06/28 11:19:22;;;;;;;;;;;;;;;17.04;59.44;101626.91;5049497;28;19929;-76
2022/06/28 11:21:48;;;;;;;;;;;;;;;16.99;59.57;101620.97;5054688;28;19939;-78
2022/06/28 11:24:14;;;;;;;;;;;;;;;16.96;63.14;101628.94;5035601;28;20011;-79
2022/06/28 11:29:23;;;;;;;;;;;;;;;17.01;57.63;101616.50;5046434;28;19932;-79
2022/06/28 11:31:48;;;;;;;;;;;;;;;17.08;58.74;101622.41;5049403;28;19920;-78
2022/06/28 11:34:21;;;;;;;;;;;;;;;17.03;58.40;101609.44;5032659;28;20552;-78
2022/06/28 11:36:47;;;;;;;;;;;;;;;17.05;58.13;101607.63;5044916;28;19921;-79
2022/06/28 11:39:19;;;;;;;;;;;;;;;17.01;58.84;101596.38;5035217;28;20460;-78
2022/06/28 11:41:49;;;;;;;;;;;;;;;17.14;58.03;101601.19;5049097;28;19923;-79
2022/06/28 11:44:14;;;;;;;;;;;;;;;17.22;58.74;101601.78;5045446;28;20019;-78
2022/06/28 11:46:40;;;;;;;;;;;;;;;17.22;58.50;101601.78;5043168;28;20066;-77
2022/06/28 11:49:05;;;;;;;;;;;;;;;17.06;64.47;101604.94;5028405;28;19927;-77
2022/06/28 11:51:31;;;;;;;;;;;;;;;17.06;64.28;101597.06;5045168;28;19943;-76
2022/06/28 11:53:57;;;;;;;;;;;;;;;17.08;65.20;101598.78;5029823;28;20692;-77
2022/06/28 11:56:22;;;;;;;;;;;;;;;17.08;63.83;101587.34;5045583;28;19936;-77
2022/06/28 11:58:47;;;;;;;;;;;;;;;17.16;65.73;101594.97;5043809;28;19960;-78
2022/06/28 12:01:14;;;;;;;;;;;;;;;17.16;63.86;101575.75;5049523;28;20319;-76
2022/06/28 12:03:42;;;;;;;;;;;;;;;17.27;61.78;101573.59;5049942;28;20008;-76
2022/06/28 12:06:08;;;;;;;;;;;;;;;17.17;67.12;101583.56;5045105;28;19925;-76
2022/06/28 12:08:51;;;;;;;;;;;;;;;17.35;56.04;101558.44;5049930;28;20446;-76
2022/06/28 12:11:27;;;;;;;;;;;;;;;17.26;59.02;101559.63;5038241;28;20316;-76
2022/06/28 12:14:02;;;;;;;;;;;;;;;17.28;57.14;101549.91;5044470;28;19925;-76
2022/06/28 12:16:28;;;;;;;;;;;;;;;17.46;58.44;101543.97;5045654;28;20426;-76
2022/06/28 12:18:54;;;;;;;;;;;;;;;17.39;59.98;101550.38;5046506;28;19929;-77
2022/06/28 12:21:19;;;;;;;;;;;;;;;17.43;60.20;101545.84;5045584;28;19925;-76
2022/06/28 12:23:53;;;;;;;;;;;;;;;17.69;57.45;101544.91;5043044;28;19924;-76
2022/06/28 12:26:19;;;;;;;;;;;;;;;17.74;57.34;101546.44;5040864;28;19925;-76
2022/06/28 12:28:45;;;;;;;;;;;;;;;17.76;55.85;101538.50;5041255;28;19924;-76
2022/06/28 12:31:10;;;;;;;;;;;;;;;17.47;60.45;101543.03;5041823;28;19970;-76
2022/06/28 12:33:36;;;;;;;;;;;;;;;17.64;59.28;101537.22;5030807;28;19947;-76
2022/06/28 12:36:01;;;;;;;;;;;;;;;17.66;58.61;101526.63;5024227;28;19979;-76
2022/06/28 12:38:26;;;;;;;;;;;;;;;17.47;64.85;101536.97;5042625;28;19939;-76
2022/06/28 12:40:52;;;;;;;;;;;;;;;17.29;65.79;101529.75;5041995;28;20392;-76
2022/06/28 12:43:17;;;;;;;;;;;;;;;17.53;58.44;101518.34;5040663;28;19929;-76
2022/06/28 12:45:43;;;;;;;;;;;;;;;17.58;58.17;101524.28;5041311;28;19921;-77